Time;durP1;ratioP1;P1;durP2;ratioP2;P2;SDS_P1;SDS_P2;PMS_P1;PMS_P2;Temp;Humidity;BMP_temperature;BMP_pressure;BME280_temperature;BME280_humidity;BME280_pressure;Samples;Min_cycle;Max_cycle;Signal;HPM_P1;HPM_P2
2022/10/18 00:01:04;;;;;;;2.70;2.23;;;22.00;99.90;;;;;;5039772;28;20468;-41
2022/10/18 00:03:31;;;;;;;6.07;2.27;;;22.00;99.90;;;;;;5038551;28;20458;-40
2022/10/18 00:05:58;;;;;;;5.67;2.53;;;22.00;99.90;;;;;;5038339;28;20504;-40
2022/10/18 00:08:26;;;;;;;2.33;2.10;;;21.90;99.90;;;;;;5041491;28;20868;-40
2022/10/18 00:10:53;;;;;;;4.93;2.67;;;21.90;99.90;;;;;;5039421;28;20466;-40
2022/10/18 00:13:21;;;;;;;4.70;2.67;;;21.90;99.90;;;;;;5045420;28;20908;-42
2022/10/18 00:15:50;;;;;;;3.78;2.40;;;21.90;99.90;;;;;;5036776;28;20454;-42
2022/10/18 00:18:17;;;;;;;3.40;2.33;;;21.90;99.90;;;;;;5033571;28;20211;-40
2022/10/18 00:20:43;;;;;;;3.50;2.37;;;21.90;99.90;;;;;;5033646;28;20481;-39
2022/10/18 00:23:10;;;;;;;4.72;3.92;;;21.90;99.90;;;;;;5036336;28;20813;-42
2022/10/18 00:25:37;;;;;;;3.95;2.50;;;21.80;99.90;;;;;;5037487;28;21877;-40
2022/10/18 00:28:03;;;;;;;2.70;2.33;;;21.90;99.90;;;;;;5036916;28;20195;-41
2022/10/18 00:30:31;;;;;;;2.90;2.20;;;21.80;99.90;;;;;;5033661;28;20481;-42
2022/10/18 00:32:58;;;;;;;5.07;2.33;;;21.80;99.90;;;;;;5042927;28;20458;-42
2022/10/18 00:35:25;;;;;;;3.28;2.30;;;21.80;99.90;;;;;;5041301;28;20512;-41
2022/10/18 00:37:52;;;;;;;3.67;2.67;;;21.80;99.90;;;;;;5038841;28;20219;-41
2022/10/18 00:40:18;;;;;;;4.00;3.05;;;21.80;99.90;;;;;;5041251;28;20200;-41
2022/10/18 00:42:45;;;;;;;5.13;2.55;;;21.80;99.90;;;;;;5043874;28;20195;-41
2022/10/18 00:45:21;;;;;;;2.50;2.30;;;21.80;99.90;;;;;;5043967;28;20199;-42
2022/10/18 00:47:53;;;;;;;2.53;2.33;;;21.80;99.90;;;;;;5037519;28;20196;-42
2022/10/18 00:50:21;;;;;;;2.58;1.85;;;21.70;99.90;;;;;;5033525;28;20844;-40
2022/10/18 00:52:52;;;;;;;6.10;2.30;;;21.70;99.90;;;;;;5046354;28;20214;-43
2022/10/18 00:55:19;;;;;;;2.25;2.15;;;21.70;99.90;;;;;;5040805;28;20556;-42
2022/10/18 00:57:47;;;;;;;2.35;2.10;;;21.70;99.90;;;;;;5041593;28;20215;-42
2022/10/18 01:00:14;;;;;;;2.25;2.05;;;21.70;99.90;;;;;;5042427;28;20210;-41
2022/10/18 01:02:43;;;;;;;2.20;2.00;;;21.70;99.90;;;;;;5038242;28;20206;-42
2022/10/18 01:05:12;;;;;;;2.97;2.30;;;21.70;99.90;;;;;;5033056;28;20188;-40
2022/10/18 01:08:06;;;;;;;3.90;2.27;;;21.70;99.90;;;;;;5041167;28;20221;-41
2022/10/18 01:10:42;;;;;;;3.50;2.60;;;21.70;99.90;;;;;;5037413;28;20461;-42
2022/10/18 01:13:26;;;;;;;4.60;2.97;;;21.60;99.90;;;;;;5046813;28;20863;-42
2022/10/18 01:16:00;;;;;;;3.60;2.10;;;21.60;99.90;;;;;;5035082;28;20516;-43
2022/10/18 01:18:30;;;;;;;2.90;2.25;;;21.60;99.90;;;;;;5041137;28;20484;-42
2022/10/18 01:21:18;;;;;;;2.25;2.05;;;21.60;99.90;;;;;;5032858;28;20211;-42
2022/10/18 01:24:15;;;;;;;2.70;2.50;;;21.60;99.90;;;;;;5034721;28;22137;-41
2022/10/18 01:27:04;;;;;;;3.80;2.27;;;21.60;99.90;;;;;;5034965;28;20210;-41
2022/10/18 01:29:44;;;;;;;2.55;2.30;;;21.60;99.90;;;;;;5038496;28;20461;-41
2022/10/18 01:32:16;;;;;;;3.83;2.27;;;21.60;99.90;;;;;;5037644;28;20190;-40
2022/10/18 01:34:45;;;;;;;2.23;2.03;;;21.60;99.90;;;;;;5030412;28;20509;-42
2022/10/18 01:37:16;;;;;;;2.35;2.15;;;21.50;99.90;;;;;;5031541;28;20482;-42
2022/10/18 01:39:46;;;;;;;2.87;2.33;;;21.50;99.90;;;;;;5032432;28;20606;-42
2022/10/18 01:42:18;;;;;;;2.37;2.03;;;21.50;99.90;;;;;;5037341;28;20528;-41
2022/10/18 01:44:46;;;;;;;2.38;2.15;;;21.50;99.90;;;;;;5033610;28;20515;-42
2022/10/18 01:47:15;;;;;;;2.88;2.03;;;21.50;99.90;;;;;;5034993;28;20206;-42
2022/10/18 01:49:42;;;;;;;3.77;2.47;;;21.50;99.90;;;;;;5035679;28;20622;-41
2022/10/18 01:52:12;;;;;;;4.20;3.08;;;21.50;99.90;;;;;;5031365;28;20822;-41
2022/10/18 01:54:42;;;;;;;3.03;2.73;;;21.50;99.90;;;;;;5035776;28;20741;-41
2022/10/18 01:57:17;;;;;;;2.60;2.40;;;21.50;99.90;;;;;;5032196;28;20497;-41
2022/10/18 01:59:53;;;;;;;2.50;1.90;;;21.40;99.90;;;;;;5038845;28;20203;-42
2022/10/18 02:02:37;;;;;;;3.35;2.17;;;21.40;99.90;;;;;;5037254;28;21029;-41
2022/10/18 02:05:12;;;;;;;2.13;1.92;;;21.50;99.90;;;;;;5035398;28;20624;-41
2022/10/18 02:07:44;;;;;;;2.78;2.20;;;21.40;99.90;;;;;;5042862;28;20202;-42
2022/10/18 02:10:16;;;;;;;3.25;1.90;;;21.40;99.90;;;;;;5042208;28;20260;-41
2022/10/18 02:12:46;;;;;;;2.20;2.00;;;21.40;99.90;;;;;;5039354;28;20191;-42
2022/10/18 02:15:16;;;;;;;3.30;2.03;;;21.40;99.90;;;;;;5039018;28;20250;-41
2022/10/18 02:17:46;;;;;;;3.05;2.25;;;21.40;99.90;;;;;;5036158;28;20219;-41
2022/10/18 02:20:15;;;;;;;2.97;2.50;;;21.40;99.90;;;;;;5035557;28;20227;-41
2022/10/18 02:22:44;;;;;;;2.97;2.35;;;21.40;99.90;;;;;;5041738;28;20196;-41
2022/10/18 02:25:17;;;;;;;4.15;2.20;;;21.40;99.90;;;;;;5034035;28;20196;-41
2022/10/18 02:27:44;;;;;;;2.63;1.98;;;21.40;99.90;;;;;;5033412;28;20196;-41
2022/10/18 02:30:14;;;;;;;3.05;2.20;;;21.40;99.90;;;;;;5034305;28;20188;-41
2022/10/18 02:32:45;;;;;;;3.10;2.80;;;21.40;99.90;;;;;;5039812;28;20193;-41
2022/10/18 02:35:19;;;;;;;2.28;2.08;;;21.30;99.90;;;;;;5032953;28;20198;-41
2022/10/18 02:37:48;;;;;;;3.03;2.80;;;21.30;99.90;;;;;;5034982;28;20273;-41
2022/10/18 02:40:16;;;;;;;2.50;2.20;;;21.30;99.90;;;;;;5039846;28;20697;-41
2022/10/18 02:42:46;;;;;;;2.33;2.03;;;21.30;99.90;;;;;;5045925;28;20252;-41
2022/10/18 02:45:13;;;;;;;2.45;2.00;;;21.30;99.90;;;;;;5039786;28;20481;-42
2022/10/18 02:47:40;;;;;;;2.38;2.15;;;21.30;99.90;;;;;;5035534;28;20285;-41
2022/10/18 02:50:09;;;;;;;2.15;1.95;;;21.30;99.90;;;;;;5046873;28;20211;-42
2022/10/18 02:52:36;;;;;;;2.40;2.03;;;21.30;99.90;;;;;;5039520;28;20187;-40
2022/10/18 02:55:03;;;;;;;2.50;1.70;;;21.30;99.90;;;;;;5035313;28;20210;-41
2022/10/18 02:57:30;;;;;;;2.05;1.85;;;21.30;99.90;;;;;;5045031;28;20335;-41
2022/10/18 02:59:57;;;;;;;2.40;2.03;;;21.30;99.90;;;;;;5041294;28;20665;-42
2022/10/18 03:02:23;;;;;;;2.50;1.67;;;21.30;99.90;;;;;;5039400;28;20194;-41
2022/10/18 03:04:50;;;;;;;2.88;2.20;;;21.20;99.90;;;;;;5041635;28;20657;-42
2022/10/18 03:07:18;;;;;;;2.67;2.15;;;21.20;99.90;;;;;;5042186;28;20250;-42
2022/10/18 03:09:45;;;;;;;2.78;2.20;;;21.20;99.90;;;;;;5046333;28;20635;-42
2022/10/18 03:12:11;;;;;;;2.78;1.58;;;21.20;99.90;;;;;;5039290;28;20195;-42
2022/10/18 03:14:38;;;;;;;2.35;2.15;;;21.20;99.90;;;;;;5044761;28;20195;-42
2022/10/18 03:17:05;;;;;;;2.40;2.20;;;21.20;99.90;;;;;;5036365;28;20227;-42
2022/10/18 03:19:31;;;;;;;2.42;2.22;;;21.20;99.90;;;;;;5033300;28;20208;-40
2022/10/18 03:21:58;;;;;;;3.15;2.03;;;21.20;99.90;;;;;;5050273;28;20190;-42
2022/10/18 03:24:26;;;;;;;5.43;2.40;;;21.20;99.90;;;;;;5047196;28;20195;-42
2022/10/18 03:26:53;;;;;;;2.40;2.20;;;21.20;99.90;;;;;;5043546;28;20214;-40
2022/10/18 03:29:19;;;;;;;2.33;1.80;;;21.20;99.90;;;;;;5046755;28;20199;-42
2022/10/18 03:31:46;;;;;;;1.77;1.63;;;21.20;99.90;;;;;;5034405;28;20187;-42
2022/10/18 03:34:14;;;;;;;2.25;1.73;;;21.20;99.90;;;;;;5040352;28;20198;-41
2022/10/18 03:36:41;;;;;;;3.15;2.10;;;21.20;99.90;;;;;;5045694;28;20668;-41
2022/10/18 03:39:08;;;;;;;2.25;2.05;;;21.10;99.90;;;;;;5039810;28;20219;-42
2022/10/18 03:41:36;;;;;;;3.28;2.83;;;21.10;99.90;;;;;;5042017;28;20578;-42
2022/10/18 03:44:03;;;;;;;1.90;1.80;;;21.10;99.90;;;;;;5048054;28;20206;-41
2022/10/18 03:46:29;;;;;;;1.75;1.65;;;21.10;99.90;;;;;;5036490;28;20203;-41
2022/10/18 03:48:56;;;;;;;1.90;1.80;;;21.10;99.90;;;;;;5036180;28;20214;-41
2022/10/18 03:51:23;;;;;;;1.92;1.70;;;21.10;99.90;;;;;;5040209;28;20258;-41
2022/10/18 03:53:49;;;;;;;2.10;1.75;;;21.10;99.90;;;;;;5041656;28;20195;-41
2022/10/18 03:56:16;;;;;;;1.70;1.60;;;21.10;99.90;;;;;;5034837;28;20199;-41
2022/10/18 03:58:44;;;;;;;2.25;2.05;;;21.10;99.90;;;;;;5035878;28;20311;-41
2022/10/18 04:01:11;;;;;;;1.90;1.55;;;21.10;99.90;;;;;;5039615;28;20202;-41
2022/10/18 04:03:38;;;;;;;2.60;1.95;;;21.10;99.90;;;;;;5041656;28;20202;-41
2022/10/18 04:06:06;;;;;;;2.10;1.88;;;21.10;99.90;;;;;;5043420;28;20579;-41
2022/10/18 04:08:33;;;;;;;2.30;1.85;;;21.10;99.90;;;;;;5041425;28;20199;-41
2022/10/18 04:11:00;;;;;;;1.70;1.60;;;21.10;99.90;;;;;;5037455;28;22263;-41
2022/10/18 04:13:26;;;;;;;1.80;1.63;;;21.00;99.90;;;;;;5039778;28;20226;-41
2022/10/18 04:15:54;;;;;;;2.30;1.85;;;21.00;99.90;;;;;;5041067;28;20575;-41
2022/10/18 04:18:21;;;;;;;2.70;1.70;;;21.00;99.90;;;;;;5040845;28;20222;-40
2022/10/18 04:20:47;;;;;;;2.10;1.90;;;21.10;99.90;;;;;;5036262;28;20227;-41
2022/10/18 04:23:14;;;;;;;2.10;1.90;;;21.10;99.90;;;;;;5036073;28;20196;-41
2022/10/18 04:25:41;;;;;;;1.95;1.67;;;21.10;99.90;;;;;;5031800;28;20682;-41
2022/10/18 04:28:07;;;;;;;2.17;1.77;;;21.00;99.90;;;;;;5036626;28;20198;-41
2022/10/18 04:30:34;;;;;;;2.30;2.10;;;21.00;99.90;;;;;;5046624;28;20195;-41
2022/10/18 04:33:02;;;;;;;2.28;1.95;;;21.00;99.90;;;;;;5039277;28;20200;-41
2022/10/18 04:35:29;;;;;;;1.83;1.70;;;21.00;99.90;;;;;;5040712;28;20202;-41
2022/10/18 04:37:56;;;;;;;2.45;2.25;;;21.00;99.90;;;;;;5035272;28;20230;-41
2022/10/18 04:40:22;;;;;;;2.25;2.08;;;21.00;99.90;;;;;;5040439;28;20566;-41
2022/10/18 04:42:49;;;;;;;2.20;2.00;;;21.00;99.90;;;;;;5031822;28;20195;-41
2022/10/18 04:45:16;;;;;;;2.70;1.90;;;21.00;99.90;;;;;;5045096;28;20202;-42
2022/10/18 04:47:42;;;;;;;2.03;1.58;;;21.00;99.90;;;;;;5042479;28;20462;-40
2022/10/18 04:50:10;;;;;;;1.60;1.48;;;21.00;99.90;;;;;;5033008;28;20669;-40
2022/10/18 04:52:37;;;;;;;1.52;1.42;;;21.00;99.90;;;;;;5033952;28;20202;-42
2022/10/18 04:55:04;;;;;;;1.70;1.60;;;21.00;99.90;;;;;;5038414;28;20602;-42
2022/10/18 04:57:31;;;;;;;2.03;1.60;;;21.40;99.90;;;;;;5030993;28;20195;-42
2022/10/18 04:59:58;;;;;;;1.65;1.55;;;21.70;99.90;;;;;;5030082;28;20594;-42
2022/10/18 05:02:24;;;;;;;1.63;1.52;;;21.90;99.90;;;;;;5033631;28;20191;-42
2022/10/18 05:04:51;;;;;;;3.03;2.10;;;22.10;99.90;;;;;;5037072;28;20191;-42
2022/10/18 05:07:19;;;;;;;1.53;1.43;;;22.30;99.90;;;;;;5030805;28;20465;-42
2022/10/18 05:09:46;;;;;;;1.90;1.63;;;22.50;99.90;;;;;;5036039;28;21328;-40
2022/10/18 05:12:13;;;;;;;1.70;1.60;;;22.60;99.90;;;;;;5038840;28;20803;-43
2022/10/18 05:14:39;;;;;;;1.57;1.47;;;22.60;99.90;;;;;;5036441;28;20465;-42
2022/10/18 05:17:06;;;;;;;1.60;1.50;;;22.70;99.90;;;;;;5032856;28;20474;-42
2022/10/18 05:19:33;;;;;;;1.70;1.60;;;22.80;99.90;;;;;;5031046;28;20482;-41
2022/10/18 05:21:59;;;;;;;2.40;1.97;;;22.80;99.90;;;;;;5037291;28;20454;-42
2022/10/18 05:24:28;;;;;;;1.93;1.60;;;22.80;99.90;;;;;;5034280;28;20461;-42
2022/10/18 05:26:54;;;;;;;2.30;1.57;;;22.80;99.90;;;;;;5031478;28;20876;-41
2022/10/18 05:29:21;;;;;;;2.00;1.57;;;22.80;99.90;;;;;;5038523;28;20469;-42
2022/10/18 05:31:48;;;;;;;1.80;1.70;;;22.70;99.90;;;;;;5038750;28;20860;-42
2022/10/18 05:34:15;;;;;;;2.77;1.60;;;22.70;99.90;;;;;;5034815;28;20465;-41
2022/10/18 05:36:42;;;;;;;1.60;1.50;;;22.70;99.90;;;;;;5033756;28;20462;-41
2022/10/18 05:39:08;;;;;;;3.03;1.80;;;22.60;99.90;;;;;;5035460;28;20474;-41
2022/10/18 05:41:36;;;;;;;2.27;1.20;;;22.60;99.90;;;;;;5033228;28;20462;-41
2022/10/18 05:44:04;;;;;;;1.80;1.70;;;22.50;99.90;;;;;;5033255;28;20462;-40
2022/10/18 05:46:31;;;;;;;1.57;1.30;;;22.50;99.90;;;;;;5033947;28;20461;-41
2022/10/18 05:48:58;;;;;;;1.47;1.37;;;22.50;99.90;;;;;;5030361;28;20466;-41
2022/10/18 05:51:25;;;;;;;1.60;1.33;;;22.40;99.90;;;;;;5030516;28;20461;-41
2022/10/18 05:53:52;;;;;;;3.20;1.53;;;22.40;99.90;;;;;;5040344;28;20896;-41
2022/10/18 05:56:18;;;;;;;1.80;1.30;;;22.40;99.90;;;;;;5033451;28;20533;-41
2022/10/18 05:58:50;;;;;;;2.20;1.60;;;22.40;99.90;;;;;;5038541;28;20485;-41
2022/10/18 06:01:16;;;;;;;1.50;1.37;;;22.40;99.90;;;;;;5033942;28;20474;-41
2022/10/18 06:03:43;;;;;;;1.43;1.33;;;22.30;99.90;;;;;;5031839;28;20457;-41
2022/10/18 06:06:12;;;;;;;1.53;1.30;;;22.30;99.90;;;;;;5041525;28;20459;-41
2022/10/18 06:08:40;;;;;;;1.77;1.50;;;22.30;99.90;;;;;;5029759;28;20459;-41
2022/10/18 06:11:08;;;;;;;2.80;1.67;;;22.30;99.90;;;;;;5041048;28;20458;-41
2022/10/18 06:13:34;;;;;;;2.20;1.40;;;22.30;99.90;;;;;;5034500;28;20896;-41
2022/10/18 06:16:02;;;;;;;1.57;1.47;;;22.20;99.90;;;;;;5038192;28;20457;-41
2022/10/18 06:18:29;;;;;;;1.80;1.70;;;22.20;99.90;;;;;;5038655;28;20859;-41
2022/10/18 06:20:57;;;;;;;1.43;1.33;;;22.20;99.90;;;;;;5037656;28;20545;-41
2022/10/18 06:23:24;;;;;;;2.20;1.20;;;22.20;99.90;;;;;;5048083;28;20494;-41
2022/10/18 06:25:51;;;;;;;1.30;1.20;;;22.20;99.90;;;;;;5042301;28;20461;-41
2022/10/18 06:28:18;;;;;;;1.37;1.20;;;22.20;99.90;;;;;;5042585;28;20480;-41
2022/10/18 06:30:44;;;;;;;2.17;1.93;;;22.20;99.90;;;;;;5041345;28;20450;-41
2022/10/18 06:33:12;;;;;;;1.73;1.47;;;22.20;99.90;;;;;;5049570;28;20468;-41
2022/10/18 06:35:39;;;;;;;1.57;1.47;;;22.20;99.90;;;;;;5044315;28;20464;-42
2022/10/18 06:38:06;;;;;;;1.50;1.40;;;22.20;99.90;;;;;;5054723;28;20452;-41
2022/10/18 06:40:36;;;;;;;1.60;1.47;;;22.20;99.90;;;;;;5043159;28;20855;-42
2022/10/18 06:43:05;;;;;;;1.60;1.27;;;22.20;99.90;;;;;;5043021;28;20518;-41
2022/10/18 06:45:32;;;;;;;1.93;1.47;;;22.30;99.90;;;;;;5030973;28;20849;-41
2022/10/18 06:47:58;;;;;;;1.63;1.37;;;22.30;99.90;;;;;;5035127;28;20524;-41
2022/10/18 06:50:26;;;;;;;2.13;1.93;;;22.30;99.90;;;;;;5042581;28;20469;-41
2022/10/18 06:52:53;;;;;;;1.73;1.60;;;22.30;99.90;;;;;;5044051;28;20454;-41
2022/10/18 06:55:20;;;;;;;1.40;1.30;;;22.30;99.90;;;;;;5038425;28;20465;-41
2022/10/18 06:57:47;;;;;;;1.43;1.33;;;22.30;99.90;;;;;;5036348;28;20457;-40
2022/10/18 07:00:14;;;;;;;1.30;1.10;;;22.30;99.90;;;;;;5037349;28;20552;-41
2022/10/18 07:02:41;;;;;;;1.70;1.50;;;22.30;99.90;;;;;;5043587;28;20465;-41
2022/10/18 07:05:09;;;;;;;1.53;1.40;;;22.40;99.90;;;;;;5037837;28;20451;-41
2022/10/18 07:07:38;;;;;;;1.43;1.30;;;22.30;99.90;;;;;;5045072;28;20529;-41
2022/10/18 07:10:06;;;;;;;1.50;1.30;;;22.30;99.90;;;;;;5049328;28;20461;-41
2022/10/18 07:12:33;;;;;;;1.30;1.20;;;22.30;99.90;;;;;;5049057;28;20445;-41
2022/10/18 07:14:59;;;;;;;1.90;1.60;;;22.30;99.90;;;;;;5049899;28;20465;-41
2022/10/18 07:17:27;;;;;;;1.70;1.60;;;22.30;99.90;;;;;;5052407;28;20465;-43
2022/10/18 07:19:54;;;;;;;1.70;1.30;;;22.40;99.90;;;;;;5047984;28;20477;-41
2022/10/18 07:22:21;;;;;;;1.50;1.40;;;22.30;99.90;;;;;;5052321;28;20492;-41
2022/10/18 07:24:49;;;;;;;1.30;1.10;;;22.30;99.90;;;;;;5051631;28;20464;-41
2022/10/18 07:27:15;;;;;;;1.10;1.00;;;22.40;99.90;;;;;;5038872;28;20466;-41
2022/10/18 07:29:42;;;;;;;1.50;1.40;;;22.30;99.90;;;;;;5050085;28;20867;-41
2022/10/18 07:32:09;;;;;;;1.27;1.17;;;22.30;99.90;;;;;;5051937;28;21208;-41
2022/10/18 07:34:36;;;;;;;2.70;1.47;;;22.30;99.90;;;;;;5046297;28;20465;-41
2022/10/18 07:37:02;;;;;;;1.40;1.30;;;22.30;99.90;;;;;;5052150;28;20465;-41
2022/10/18 07:39:29;;;;;;;1.40;1.17;;;22.30;99.90;;;;;;5049204;28;20478;-41
2022/10/18 07:41:57;;;;;;;1.83;1.37;;;22.30;99.90;;;;;;5046392;28;21248;-41
2022/10/18 07:44:24;;;;;;;1.50;1.40;;;22.40;99.90;;;;;;5043930;28;20450;-41
2022/10/18 07:46:51;;;;;;;1.50;1.30;;;22.30;99.90;;;;;;5035410;28;21003;-41
2022/10/18 07:49:18;;;;;;;1.70;1.50;;;22.30;99.90;;;;;;5047288;28;20892;-41
2022/10/18 07:51:44;;;;;;;1.20;1.10;;;22.30;99.90;;;;;;5051781;28;20454;-40
2022/10/18 07:54:11;;;;;;;1.40;1.30;;;22.40;99.90;;;;;;5044427;28;20454;-41
2022/10/18 07:56:38;;;;;;;1.70;1.30;;;22.40;99.90;;;;;;5045838;28;20450;-41
2022/10/18 07:59:06;;;;;;;1.50;1.40;;;22.40;99.90;;;;;;5040409;28;20572;-41
2022/10/18 08:01:34;;;;;;;1.63;1.20;;;22.40;99.90;;;;;;5049880;28;20446;-41
2022/10/18 08:04:00;;;;;;;1.50;1.40;;;22.40;99.90;;;;;;5042069;28;20803;-40
2022/10/18 08:06:27;;;;;;;3.07;1.97;;;22.40;99.90;;;;;;5048271;28;20842;-39
2022/10/18 08:08:54;;;;;;;2.90;2.47;;;22.50;99.90;;;;;;5049114;28;20461;-40
2022/10/18 08:11:22;;;;;;;2.60;2.40;;;22.50;99.90;;;;;;5047518;28;20450;-40
2022/10/18 08:13:50;;;;;;;3.73;3.40;;;22.50;99.90;;;;;;5053118;28;20430;-41
2022/10/18 08:16:19;;;;;;;4.80;2.80;;;22.50;99.90;;;;;;5043057;28;20466;-40
2022/10/18 08:18:46;;;;;;;4.03;2.40;;;22.50;99.90;;;;;;5045228;28;20485;-39
2022/10/18 08:21:14;;;;;;;3.20;2.90;;;22.60;99.90;;;;;;5045613;28;20856;-39
2022/10/18 08:23:41;;;;;;;5.10;2.40;;;22.60;99.90;;;;;;5045882;28;20876;-40
2022/10/18 08:26:10;;;;;;;3.63;2.47;;;22.60;99.90;;;;;;5048194;28;20849;-39
2022/10/18 08:28:38;;;;;;;11.00;6.93;;;22.60;99.90;;;;;;5043428;28;20463;-41
2022/10/18 08:31:06;;;;;;;5.53;5.03;;;22.60;99.90;;;;;;5044545;28;20486;-42
2022/10/18 08:33:34;;;;;;;5.90;3.90;;;22.60;99.90;;;;;;5037810;28;20961;-40
2022/10/18 08:36:04;;;;;;;5.37;4.87;;;22.60;99.90;;;;;;5038071;28;20453;-40
2022/10/18 08:38:32;;;;;;;7.90;4.33;;;22.60;99.90;;;;;;5041651;28;20461;-40
2022/10/18 08:41:00;;;;;;;4.07;3.77;;;22.60;99.90;;;;;;5038998;28;20466;-42
2022/10/18 08:43:33;;;;;;;4.97;3.73;;;22.60;99.90;;;;;;5033718;28;20455;-42
2022/10/18 08:46:00;;;;;;;3.90;3.20;;;22.60;99.90;;;;;;5040333;28;20458;-41
2022/10/18 08:48:35;;;;;;;4.73;3.10;;;22.60;99.90;;;;;;5036298;28;20461;-41
2022/10/18 08:51:03;;;;;;;4.00;2.70;;;22.60;99.90;;;;;;5043786;28;20472;-41
2022/10/18 08:53:38;;;;;;;3.80;3.30;;;22.60;99.90;;;;;;5038809;28;20465;-42
2022/10/18 08:56:10;;;;;;;3.23;2.93;;;22.60;99.90;;;;;;5034384;28;20457;-42
2022/10/18 08:58:37;;;;;;;2.90;2.67;;;22.60;99.90;;;;;;5034000;28;20457;-42
2022/10/18 09:01:18;;;;;;;2.50;2.30;;;22.60;99.90;;;;;;5037001;28;20465;-39
2022/10/18 09:04:09;;;;;;;2.90;2.60;;;22.50;99.90;;;;;;5037485;28;20458;-42
2022/10/18 09:06:44;;;;;;;3.40;3.10;;;22.50;99.90;;;;;;5043442;28;20982;-41
2022/10/18 09:09:28;;;;;;;5.20;2.93;;;22.50;99.90;;;;;;5041840;28;20825;-41
2022/10/18 09:12:05;;;;;;;3.37;3.07;;;22.50;99.90;;;;;;5041126;28;20461;-41
2022/10/18 09:15:05;;;;;;;2.57;2.37;;;22.50;99.90;;;;;;5045452;28;21032;-42
2022/10/18 09:17:39;;;;;;;2.77;2.40;;;22.50;99.90;;;;;;5025381;28;20484;-41
2022/10/18 09:20:20;;;;;;;2.60;2.40;;;22.50;99.90;;;;;;5043747;28;20473;-40
2022/10/18 09:22:53;;;;;;;2.77;2.47;;;22.50;99.90;;;;;;5043860;28;20458;-42
2022/10/18 09:25:22;;;;;;;2.50;2.30;;;22.50;99.90;;;;;;5035413;28;20467;-41
2022/10/18 09:27:54;;;;;;;2.73;2.40;;;22.50;99.90;;;;;;5031061;28;20485;-42
2022/10/18 09:30:31;;;;;;;2.40;2.20;;;22.50;99.90;;;;;;5030625;28;20473;-42
2022/10/18 09:33:07;;;;;;;2.50;2.20;;;22.60;99.90;;;;;;5035638;28;20457;-42
2022/10/18 09:35:42;;;;;;;2.97;2.47;;;22.60;99.90;;;;;;5032003;28;20464;-41
2022/10/18 09:38:11;;;;;;;2.80;2.60;;;22.60;99.90;;;;;;5041288;28;20561;-42
2022/10/18 09:40:48;;;;;;;2.80;2.40;;;22.60;99.90;;;;;;5034397;28;20484;-42
2022/10/18 09:43:18;;;;;;;2.80;2.60;;;22.70;99.90;;;;;;5036498;28;20461;-41
2022/10/18 09:45:46;;;;;;;3.40;2.23;;;22.70;99.90;;;;;;5037232;28;20474;-40
2022/10/18 09:48:17;;;;;;;2.83;2.53;;;22.70;99.90;;;;;;5040986;28;20469;-41
2022/10/18 09:50:51;;;;;;;2.33;2.13;;;22.70;99.90;;;;;;5035835;28;20461;-41
2022/10/18 09:53:24;;;;;;;3.73;2.90;;;22.70;99.90;;;;;;5044255;28;20988;-42
2022/10/18 09:55:58;;;;;;;2.80;2.43;;;22.70;99.90;;;;;;5038475;28;20508;-41
2022/10/18 09:58:28;;;;;;;2.50;2.30;;;22.80;99.90;;;;;;5038148;28;20522;-42
2022/10/18 10:00:55;;;;;;;2.43;2.23;;;22.70;99.90;;;;;;5030831;28;20488;-41
2022/10/18 10:03:25;;;;;;;2.53;2.33;;;22.70;99.90;;;;;;5045977;28;20462;-40
2022/10/18 10:06:22;;;;;;;2.50;2.30;;;22.80;99.90;;;;;;5043985;28;20465;-42
2022/10/18 10:08:55;;;;;;;2.90;2.70;;;22.80;99.90;;;;;;5039691;28;20559;-40
2022/10/18 10:11:45;;;;;;;2.87;2.50;;;22.80;99.90;;;;;;5036554;28;20868;-41
2022/10/18 10:14:16;;;;;;;2.93;2.73;;;22.80;99.90;;;;;;5030856;28;20520;-41
2022/10/18 10:16:47;;;;;;;2.90;2.60;;;22.80;99.90;;;;;;5037633;28;20480;-41
2022/10/18 10:19:23;;;;;;;2.60;2.40;;;22.90;99.90;;;;;;5038570;28;20458;-40
2022/10/18 10:21:55;;;;;;;2.67;2.47;;;22.90;99.90;;;;;;5036947;28;20462;-37
2022/10/18 10:24:25;;;;;;;4.80;2.97;;;22.90;99.90;;;;;;5039003;28;20460;-42
2022/10/18 10:27:01;;;;;;;3.10;2.90;;;23.00;99.90;;;;;;5032955;28;20846;-42
2022/10/18 10:29:58;;;;;;;3.00;2.70;;;23.00;99.90;;;;;;5029498;28;20473;-44
2022/10/18 10:32:29;;;;;;;3.13;2.93;;;22.90;99.90;;;;;;5021222;28;20463;-44
2022/10/18 10:34:56;;;;;;;6.30;2.37;;;22.90;99.90;;;;;;5037753;28;20443;-45
2022/10/18 10:37:28;;;;;;;3.10;2.33;;;23.00;99.90;;;;;;5043366;28;20469;-44
2022/10/18 10:40:22;;;;;;;5.73;1.80;;;23.00;99.90;;;;;;5037357;28;20477;-42
2022/10/18 10:43:02;;;;;;;2.70;2.50;;;23.10;99.90;;;;;;4998673;28;20964;-42
2022/10/18 10:45:32;;;;;;;3.00;2.70;;;23.10;99.90;;;;;;5035240;28;20484;-42
2022/10/18 10:48:07;;;;;;;2.57;2.37;;;23.10;99.90;;;;;;5035575;28;20462;-42
2022/10/18 10:50:49;;;;;;;5.43;2.33;;;23.10;99.90;;;;;;5035361;28;20887;-42
2022/10/18 10:53:38;;;;;;;2.30;2.20;;;23.10;99.90;;;;;;5044117;28;20552;-42
2022/10/18 10:56:06;;;;;;;3.00;2.50;;;23.10;99.90;;;;;;5042927;28;20455;-42
2022/10/18 10:58:37;;;;;;;4.93;2.73;;;23.20;99.90;;;;;;5045385;28;20461;-43
2022/10/18 11:01:29;;;;;;;2.73;2.13;;;23.10;99.90;;;;;;5045058;28;20508;-42
2022/10/18 11:03:58;;;;;;;3.10;2.37;;;23.20;99.90;;;;;;5043938;28;20465;-42
2022/10/18 11:06:40;;;;;;;2.40;2.20;;;23.20;99.90;;;;;;5048002;28;20718;-42
2022/10/18 11:09:17;;;;;;;5.10;2.63;;;23.20;99.90;;;;;;5038004;28;20457;-41
2022/10/18 11:11:56;;;;;;;3.67;2.40;;;23.20;99.90;;;;;;5037068;28;20458;-42
2022/10/18 11:14:27;;;;;;;2.20;2.00;;;23.20;99.90;;;;;;5033545;28;20462;-42
2022/10/18 11:17:02;;;;;;;2.83;2.63;;;23.20;99.90;;;;;;5034879;28;20489;-41
2022/10/18 11:19:35;;;;;;;3.50;2.80;;;23.20;99.90;;;;;;5039038;28;20472;-41
2022/10/18 11:22:06;;;;;;;4.90;2.50;;;23.30;99.90;;;;;;5042802;28;20454;-42
2022/10/18 11:24:36;;;;;;;4.00;2.60;;;23.30;99.90;;;;;;5039115;28;20459;-41
2022/10/18 11:27:10;;;;;;;2.90;2.60;;;23.20;99.90;;;;;;5039403;28;20512;-41
2022/10/18 11:29:49;;;;;;;4.67;2.10;;;23.20;99.90;;;;;;5043628;28;20960;-44
2022/10/18 11:32:28;;;;;;;2.43;2.23;;;23.30;99.90;;;;;;5048726;28;20445;-43
2022/10/18 11:35:08;;;;;;;3.00;2.70;;;23.30;99.90;;;;;;5038557;28;20460;-44
2022/10/18 11:37:56;;;;;;;4.00;3.70;;;23.30;99.90;;;;;;5042808;28;20441;-45
2022/10/18 11:40:42;;;;;;;5.53;3.03;;;23.30;99.90;;;;;;5040338;28;20493;-46
2022/10/18 11:43:16;;;;;;;3.83;3.53;;;23.30;99.90;;;;;;5045077;28;20856;-44
2022/10/18 11:45:50;;;;;;;7.73;3.80;;;23.30;99.90;;;;;;5037364;28;20460;-45
2022/10/18 11:48:34;;;;;;;4.53;3.67;;;23.30;99.90;;;;;;5043570;28;20458;-45
2022/10/18 11:51:08;;;;;;;6.07;3.90;;;23.20;99.90;;;;;;5038969;28;20466;-44
2022/10/18 11:53:43;;;;;;;4.03;2.90;;;23.30;99.90;;;;;;5041526;28;20449;-44
2022/10/18 11:56:20;;;;;;;5.60;3.43;;;23.20;99.90;;;;;;5037693;28;20979;-43
2022/10/18 11:59:04;;;;;;;3.90;3.50;;;23.30;99.90;;;;;;5035235;28;20469;-42
2022/10/18 12:01:37;;;;;;;3.87;3.20;;;23.30;99.90;;;;;;5042087;28;20504;-43
2022/10/18 12:04:11;;;;;;;3.43;3.07;;;23.30;99.90;;;;;;5037855;28;20462;-43
2022/10/18 12:06:40;;;;;;;3.10;2.80;;;23.30;99.90;;;;;;5037995;28;20523;-44
2022/10/18 12:09:15;;;;;;;7.03;3.03;;;23.30;99.90;;;;;;5040872;28;20470;-44
2022/10/18 12:11:48;;;;;;;3.43;3.10;;;23.30;99.90;;;;;;5038917;28;21779;-44
2022/10/18 12:14:24;;;;;;;3.30;2.80;;;23.30;99.90;;;;;;5036961;28;20463;-43
2022/10/18 12:16:51;;;;;;;4.70;2.77;;;23.30;99.90;;;;;;5032723;28;20588;-43
2022/10/18 12:19:21;;;;;;;5.40;4.97;;;23.30;99.90;;;;;;5039218;28;20859;-44
2022/10/18 12:21:49;;;;;;;8.60;7.90;;;23.30;99.90;;;;;;5036237;28;20484;-42
2022/10/18 12:24:20;;;;;;;9.50;8.80;;;23.30;99.90;;;;;;5045825;28;20466;-44
2022/10/18 12:26:51;;;;;;;12.40;11.33;;;23.30;99.90;;;;;;5033649;28;20449;-42
2022/10/18 12:29:25;;;;;;;11.67;10.03;;;23.30;99.90;;;;;;5031610;28;20462;-43
2022/10/18 12:31:55;;;;;;;13.20;12.07;;;23.30;99.90;;;;;;5038062;28;20778;-44
2022/10/18 12:34:31;;;;;;;13.97;12.87;;;23.30;99.90;;;;;;5040404;28;20895;-43
2022/10/18 12:37:26;;;;;;;15.13;13.87;;;23.30;99.90;;;;;;5042075;28;20454;-43
2022/10/18 12:39:56;;;;;;;13.00;11.90;;;23.30;99.90;;;;;;5041024;28;20457;-43
2022/10/18 12:42:26;;;;;;;12.27;11.10;;;23.30;99.90;;;;;;5032620;28;20482;-43
2022/10/18 12:45:02;;;;;;;11.40;10.50;;;23.30;99.90;;;;;;5038750;28;20466;-45
2022/10/18 12:47:30;;;;;;;11.20;10.10;;;23.30;99.90;;;;;;5035834;28;21068;-42
2022/10/18 12:49:58;;;;;;;10.67;9.70;;;23.30;99.90;;;;;;5030940;28;20884;-43
2022/10/18 12:52:27;;;;;;;11.73;9.47;;;23.30;99.90;;;;;;5034756;28;20462;-43
2022/10/18 12:55:04;;;;;;;11.10;10.10;;;23.30;99.90;;;;;;5039464;28;20490;-43
2022/10/18 12:58:05;;;;;;;10.87;9.97;;;23.30;99.90;;;;;;5041115;28;20836;-43
2022/10/18 13:00:51;;;;;;;9.37;8.67;;;23.30;99.90;;;;;;5040788;28;20656;-42
2022/10/18 13:03:57;;;;;;;15.63;14.43;;;23.30;99.90;;;;;;5040140;28;20471;-42